KOWD/OWD METAR and TAF weather

Enter ICAO airport designator
Station Type Date Time Source
KOWD METAR 2020/09/19 17:53 UTC NOAA

KOWD 191753Z 10007KT 10SM CLR 16/M01 A3030 RMK AO2 SLP260 T01611011 10167 20094 56006


Station Type Date Time Source
KOWD Decoded METAR 2020/09/19 17:53 UTC NOAA

NORWOOD MEMORIAL AIRPORT, MA, United States (KOWD) 42-11N 71-10W 19M
Sep 19, 2020 - 01:53 PM EDT / 2020.09.19 1753 UTC
Wind: from the E (100 degrees) at 8 MPH (7 KT):0
Visibility: 10 mile(s):0
Sky conditions: clear
Temperature: 61.0 F (16.1 C)
Dew Point: 30.0 F (-1.1 C)
Relative Humidity: 30%
Pressure (altimeter): 30.3 in. Hg (1026 hPa)
Pressure tendency: 0.02 inches (0.6 hPa) lower than three hours ago
ob: KOWD 191753Z 10007KT 10SM CLR 16/M01 A3030 RMK AO2 SLP260 T01611011 10167 20094 56006
cycle: 18

Station Type Date Time Source
KOWD TAF UTC NOAA

Error!

Example: see airport list